Ems Express — WDC6662 — position and weather

sailwx.info

Track history (hours):
 
Tides and Currents Weather Stations Pressure Air Temp Water Temp Dewpoint Dewpoint Depression Visibility Wind Speed Wind Dir Waves Ship Positions

Ems Express

Owner: Marquette Transportation Company Gulf-Inland, LLC, Jefferson, LA. More information available from US FCC via Universal Licensing System and Coast Guard Vessel Documentation Center.

Last reported at 2017-Oct-22 11:50 UTC. Time now 2017-Oct-22 19:17 UTC.
Position N 29°43' W 095°01'.

Length 22 m; draft 2.9 m.

Type: . MMSI: 367059310.

Date/timePositionNaut miles runAvg speedWind from/ knotsBaromVisibWave heightAir tempDewpointWater temp
2017-Oct-22 11:50N 29°43' W 095°01'2 5.9
2017-Oct-22 11:30N 29°41' W 094°59'8 6.6
2017-Oct-22 10:18N 29°34' W 094°55'80 4.5
2017-Oct-21 16:34N 30°04' W 093°30'1 5.8
2017-Oct-21 16:25N 30°04' W 093°29'2 5.1
2017-Oct-21 16:00N 30°04' W 093°27'3 6.2
2017-Oct-21 15:30N 30°04' W 093°23'2 4.5
2017-Oct-21 15:00N 30°04' W 093°21'2 4.7
2017-Oct-21 14:30N 30°06' W 093°19'2 2.3
2017-Oct-21 13:30N 30°05' W 093°17'0 0.0
2017-Oct-21 13:00N 30°05' W 093°17'0 0.7
2017-Oct-21 12:30N 30°04' W 093°16'0 0.0
2017-Oct-21 12:00N 30°04' W 093°16'0 0.0
2017-Oct-21 11:30N 30°04' W 093°16'0 0.0
2017-Oct-21 11:00N 30°04' W 093°16'0 0.0
2017-Oct-21 10:30N 30°04' W 093°16'0 0.0
2017-Oct-21 10:01N 30°04' W 093°16'0 0.0
2017-Oct-21 09:31N 30°04' W 093°16'0 0.0
2017-Oct-21 09:00N 30°04' W 093°16'0 0.0
2017-Oct-21 08:30N 30°04' W 093°16'0 0.0
2017-Oct-21 08:00N 30°04' W 093°16'0 0.0
2017-Oct-21 07:31N 30°04' W 093°16'0 0.4
2017-Oct-21 07:00N 30°04' W 093°16'1 1.5
2017-Oct-21 06:31N 30°04' W 093°16'1 2.2
2017-Oct-21 06:01N 30°03' W 093°16'1 2.7
2017-Oct-21 05:31N 30°02' W 093°14'0 0.0
2017-Oct-21 05:01N 30°02' W 093°14'0 0.0
2017-Oct-21 04:31N 30°02' W 093°14'0 0.0
2017-Oct-21 04:01N 30°02' W 093°14'0 0.0
2017-Oct-21 03:31N 30°02' W 093°14'0 0.0
2017-Oct-21 03:01N 30°02' W 093°14'0 0.0
2017-Oct-21 02:31N 30°02' W 093°14'0 0.0
2017-Oct-21 02:01N 30°02' W 093°14'0 0.0
2017-Oct-21 01:31N 30°02' W 093°14'0 0.0
2017-Oct-21 01:01N 30°02' W 093°14'0 0.0
2017-Oct-21 00:31N 30°02' W 093°14'0 0.0
2017-Oct-21 00:01N 30°02' W 093°14'1 2.8
2017-Oct-20 23:31N 30°00' W 093°14'1 2.0
2017-Oct-20 23:01N 29°60' W 093°13'0 0.0
2017-Oct-20 22:30N 29°60' W 093°13'0 0.3
2017-Oct-20 22:00N 29°59' W 093°13'0 0.9
2017-Oct-20 21:30N 29°59' W 093°13'0 0.0
2017-Oct-20 21:01N 29°59' W 093°13'0 0.8
2017-Oct-20 20:31N 29°59' W 093°12'2 4.5
2017-Oct-20 20:01N 29°57' W 093°11'45 5.0
2017-Oct-20 11:02N 29°50' W 092°19'0 5.4
2017-Oct-20 11:01N 29°50' W 092°19'2 4.4
2017-Oct-20 10:30N 29°49' W 092°17'3 5.7
2017-Oct-20 10:00N 29°48' W 092°14'2 3.5
2017-Oct-20 09:30N 29°47' W 092°12'1 1.6
2017-Oct-20 09:01N 29°47' W 092°11'1 1.1
2017-Oct-20 08:31N 29°47' W 092°11'2 4.8
2017-Oct-20 08:00N 29°47' W 092°08'3 5.2
2017-Oct-20 07:31N 29°48' W 092°05'3 5.5
2017-Oct-20 07:01N 29°49' W 092°02'66 4.7
2017-Oct-19 17:05N 29°32' W 090°49'0 5.6
2017-Oct-19 17:00N 29°32' W 090°48'2 5.0
2017-Oct-19 16:30N 29°33' W 090°45'2 5.0
2017-Oct-19 16:01N 29°34' W 090°43'3 5.2
2017-Oct-19 15:30N 29°37' W 090°42'1 2.9
2017-Oct-19 15:01N 29°36' W 090°41'3 5.5
2017-Oct-19 14:31N 29°35' W 090°38'2 4.9
2017-Oct-19 14:00N 29°35' W 090°35'3 5.3
2017-Oct-19 13:31N 29°34' W 090°32'3 5.7
2017-Oct-19 13:00N 29°34' W 090°29'  
Track history (hours):
 
Tides and Currents Weather Stations Pressure Air Temp Water Temp Dewpoint Dewpoint Depression Visibility Wind Speed Wind Dir Waves Ship Positions

Ems Express

Owner: Marquette Transportation Company Gulf-Inland, LLC, Jefferson, LA. More information available from US FCC via Universal Licensing System and Coast Guard Vessel Documentation Center.

Last reported at 2017-Oct-22 11:50 UTC. Time now 2017-Oct-22 19:17 UTC.
Position N 29°43' W 095°01'.

Length 22 m; draft 2.9 m.

Type: . MMSI: 367059310.

Date/timePositionNaut miles runAvg speedWind from/ knotsBaromVisibWave heightAir tempDewpointWater temp
2017-Oct-22 11:50N 29°43' W 095°01'2 5.9
2017-Oct-22 11:30N 29°41' W 094°59'8 6.6
2017-Oct-22 10:18N 29°34' W 094°55'80 4.5
2017-Oct-21 16:34N 30°04' W 093°30'1 5.8
2017-Oct-21 16:25N 30°04' W 093°29'2 5.1
2017-Oct-21 16:00N 30°04' W 093°27'3 6.2
2017-Oct-21 15:30N 30°04' W 093°23'2 4.5
2017-Oct-21 15:00N 30°04' W 093°21'2 4.7
2017-Oct-21 14:30N 30°06' W 093°19'2 2.3
2017-Oct-21 13:30N 30°05' W 093°17'0 0.0
2017-Oct-21 13:00N 30°05' W 093°17'0 0.7
2017-Oct-21 12:30N 30°04' W 093°16'0 0.0
2017-Oct-21 12:00N 30°04' W 093°16'0 0.0
2017-Oct-21 11:30N 30°04' W 093°16'0 0.0
2017-Oct-21 11:00N 30°04' W 093°16'0 0.0
2017-Oct-21 10:30N 30°04' W 093°16'0 0.0
2017-Oct-21 10:01N 30°04' W 093°16'0 0.0
2017-Oct-21 09:31N 30°04' W 093°16'0 0.0
2017-Oct-21 09:00N 30°04' W 093°16'0 0.0
2017-Oct-21 08:30N 30°04' W 093°16'0 0.0
2017-Oct-21 08:00N 30°04' W 093°16'0 0.0
2017-Oct-21 07:31N 30°04' W 093°16'0 0.4
2017-Oct-21 07:00N 30°04' W 093°16'1 1.5
2017-Oct-21 06:31N 30°04' W 093°16'1 2.2
2017-Oct-21 06:01N 30°03' W 093°16'1 2.7
2017-Oct-21 05:31N 30°02' W 093°14'0 0.0
2017-Oct-21 05:01N 30°02' W 093°14'0 0.0
2017-Oct-21 04:31N 30°02' W 093°14'0 0.0
2017-Oct-21 04:01N 30°02' W 093°14'0 0.0
2017-Oct-21 03:31N 30°02' W 093°14'0 0.0
2017-Oct-21 03:01N 30°02' W 093°14'0 0.0
2017-Oct-21 02:31N 30°02' W 093°14'0 0.0
2017-Oct-21 02:01N 30°02' W 093°14'0 0.0
2017-Oct-21 01:31N 30°02' W 093°14'0 0.0
2017-Oct-21 01:01N 30°02' W 093°14'0 0.0
2017-Oct-21 00:31N 30°02' W 093°14'0 0.0
2017-Oct-21 00:01N 30°02' W 093°14'1 2.8
2017-Oct-20 23:31N 30°00' W 093°14'1 2.0
2017-Oct-20 23:01N 29°60' W 093°13'0 0.0
2017-Oct-20 22:30N 29°60' W 093°13'0 0.3
2017-Oct-20 22:00N 29°59' W 093°13'0 0.9
2017-Oct-20 21:30N 29°59' W 093°13'0 0.0
2017-Oct-20 21:01N 29°59' W 093°13'0 0.8
2017-Oct-20 20:31N 29°59' W 093°12'2 4.5
2017-Oct-20 20:01N 29°57' W 093°11'45 5.0
2017-Oct-20 11:02N 29°50' W 092°19'0 5.4
2017-Oct-20 11:01N 29°50' W 092°19'2 4.4
2017-Oct-20 10:30N 29°49' W 092°17'3 5.7
2017-Oct-20 10:00N 29°48' W 092°14'2 3.5
2017-Oct-20 09:30N 29°47' W 092°12'1 1.6
2017-Oct-20 09:01N 29°47' W 092°11'1 1.1
2017-Oct-20 08:31N 29°47' W 092°11'2 4.8
2017-Oct-20 08:00N 29°47' W 092°08'3 5.2
2017-Oct-20 07:31N 29°48' W 092°05'3 5.5
2017-Oct-20 07:01N 29°49' W 092°02'66 4.7
2017-Oct-19 17:05N 29°32' W 090°49'0 5.6
2017-Oct-19 17:00N 29°32' W 090°48'2 5.0
2017-Oct-19 16:30N 29°33' W 090°45'2 5.0
2017-Oct-19 16:01N 29°34' W 090°43'3 5.2
2017-Oct-19 15:30N 29°37' W 090°42'1 2.9
2017-Oct-19 15:01N 29°36' W 090°41'3 5.5
2017-Oct-19 14:31N 29°35' W 090°38'2 4.9
2017-Oct-19 14:00N 29°35' W 090°35'3 5.3
2017-Oct-19 13:31N 29°34' W 090°32'3 5.7
2017-Oct-19 13:00N 29°34' W 090°29'  

Dump ship's entire track history